createdAt,value
2019-06-01T00:00:08.176Z,12.90
2019-06-01T00:02:25.092Z,12.80
2019-06-01T00:04:54.481Z,12.80
2019-06-01T00:07:24.556Z,12.80
2019-06-01T00:09:54.809Z,12.80
2019-06-01T00:12:24.843Z,12.70
2019-06-01T00:14:54.990Z,12.70
2019-06-01T00:17:25.238Z,12.70
2019-06-01T00:19:55.336Z,12.60
2019-06-01T00:22:25.473Z,12.60
2019-06-01T00:24:55.565Z,12.50
2019-06-01T00:27:25.875Z,12.50
2019-06-01T00:29:55.850Z,12.50
2019-06-01T00:32:26.104Z,12.40
2019-06-01T00:34:57.630Z,12.40
2019-06-01T00:37:26.952Z,12.40
2019-06-01T00:39:56.451Z,12.40
2019-06-01T00:42:26.678Z,12.40
2019-06-01T00:44:56.750Z,12.30
2019-06-01T00:47:26.988Z,12.30
2019-06-01T00:49:57.393Z,12.30
2019-06-01T00:52:27.280Z,12.20
2019-06-01T00:54:57.362Z,12.30
2019-06-01T00:57:27.595Z,12.20
2019-06-01T00:59:57.656Z,12.20
2019-06-01T01:02:27.957Z,12.20
2019-06-01T01:05:02.778Z,12.10
2019-06-01T01:07:32.142Z,12.10
2019-06-01T01:10:01.515Z,12.10
2019-06-01T01:12:30.925Z,12.10
2019-06-01T01:15:00.244Z,12.10
2019-06-01T01:17:29.568Z,12.10
2019-06-01T01:19:59.395Z,12.10
2019-06-01T01:22:29.028Z,12.10
2019-06-01T01:24:59.174Z,12.10
2019-06-01T01:27:29.465Z,12.10
2019-06-01T01:29:59.416Z,12.10
2019-06-01T01:32:29.664Z,12.10
2019-06-01T01:34:59.723Z,12.00
2019-06-01T01:37:30.000Z,12.00
2019-06-01T01:40:00.040Z,12.00
2019-06-01T01:42:30.319Z,12.00
2019-06-01T01:45:00.621Z,11.90
2019-06-01T01:47:31.568Z,12.00
2019-06-01T01:50:03.045Z,12.00
2019-06-01T01:52:32.510Z,11.90
2019-06-01T01:55:03.238Z,11.90
2019-06-01T01:57:32.974Z,11.90
2019-06-01T02:00:02.579Z,11.90
2019-06-01T02:02:32.065Z,11.90
2019-06-01T02:05:03.181Z,11.80
2019-06-01T02:07:32.572Z,11.80
2019-06-01T02:10:02.048Z,11.80
2019-06-01T02:12:32.125Z,11.80
2019-06-01T02:15:02.357Z,11.80
2019-06-01T02:17:32.799Z,11.90
2019-06-01T02:20:04.024Z,11.90
2019-06-01T02:22:33.348Z,11.90
2019-06-01T02:25:04.030Z,11.80
2019-06-01T02:27:33.408Z,11.80
2019-06-01T02:30:05.644Z,11.80
2019-06-01T02:32:34.786Z,11.80
2019-06-01T02:35:06.358Z,11.80
2019-06-01T02:37:35.689Z,11.70
2019-06-01T02:40:08.701Z,11.70
2019-06-01T02:42:38.997Z,11.70
2019-06-01T02:45:13.182Z,11.60
2019-06-01T02:47:42.527Z,11.60
2019-06-01T02:50:11.984Z,11.60
2019-06-01T02:52:41.309Z,11.60
2019-06-01T02:55:16.438Z,11.60
2019-06-01T02:57:45.780Z,11.60
2019-06-01T03:00:16.941Z,11.50
2019-06-01T03:02:47.127Z,11.50
2019-06-01T03:05:17.018Z,11.50
2019-06-01T03:07:48.989Z,11.50
2019-06-01T03:10:18.565Z,11.60
2019-06-01T03:12:47.979Z,11.50
2019-06-01T03:15:18.365Z,11.60
2019-06-01T03:17:48.880Z,11.50
2019-06-01T03:20:21.103Z,11.50
2019-06-01T03:22:52.292Z,11.50
2019-06-01T03:25:21.623Z,11.50
2019-06-01T03:27:53.667Z,11.50
2019-06-01T03:30:45.548Z,11.50
2019-06-01T03:33:14.175Z,11.50
2019-06-01T03:35:43.884Z,11.50
2019-06-01T03:38:13.218Z,11.50
2019-06-01T03:40:42.526Z,11.60
2019-06-01T03:43:13.415Z,11.60
2019-06-01T03:45:42.721Z,11.60
2019-06-01T03:48:12.983Z,11.70
2019-06-01T03:50:42.414Z,11.80
2019-06-01T03:53:12.190Z,11.80
2019-06-01T03:55:41.635Z,11.80
2019-06-01T03:58:11.216Z,11.80
2019-06-01T04:00:40.679Z,11.90
2019-06-01T04:03:10.995Z,12.00
2019-06-01T04:05:40.519Z,12.00
2019-06-01T04:08:12.292Z,12.10
2019-06-01T04:10:40.123Z,12.20
2019-06-01T04:13:09.661Z,12.20
2019-06-01T04:15:39.871Z,12.20
2019-06-01T04:18:10.304Z,12.30
2019-06-01T04:20:40.372Z,12.40
2019-06-01T04:23:10.638Z,12.40
2019-06-01T04:25:40.822Z,12.50
2019-06-01T04:28:13.885Z,12.50
2019-06-01T04:30:43.327Z,12.60
2019-06-01T04:33:13.272Z,12.70
2019-06-01T04:35:42.975Z,12.80
2019-06-01T04:38:13.406Z,12.80
2019-06-01T04:40:43.897Z,12.90
2019-06-01T04:43:14.182Z,13.00
2019-06-01T04:45:43.864Z,13.20
2019-06-01T04:48:13.181Z,13.20
2019-06-01T04:50:42.575Z,13.40
2019-06-01T04:53:13.439Z,13.50
2019-06-01T04:55:42.883Z,13.60
2019-06-01T04:58:13.084Z,13.60
2019-06-01T05:00:42.759Z,13.70
2019-06-01T05:03:13.592Z,13.80
2019-06-01T05:05:43.129Z,13.80
2019-06-01T05:08:13.934Z,13.90
2019-06-01T05:10:43.489Z,13.90
2019-06-01T05:13:13.797Z,14.00
2019-06-01T05:15:43.765Z,14.10
2019-06-01T05:18:14.241Z,14.10
2019-06-01T05:20:44.091Z,14.20
2019-06-01T05:23:14.827Z,14.30
2019-06-01T05:25:44.305Z,14.50
2019-06-01T05:28:15.286Z,14.60
2019-06-01T05:30:44.845Z,14.70
2019-06-01T05:33:29.494Z,14.90
2019-06-01T05:35:45.751Z,15.00
2019-06-01T05:38:16.407Z,15.10
2019-06-01T05:40:45.906Z,15.20
2019-06-01T05:43:18.080Z,15.40
2019-06-01T05:45:46.313Z,15.50
2019-06-01T05:48:23.154Z,15.60
2019-06-01T05:50:46.662Z,15.70
2019-06-01T05:53:16.706Z,15.80
2019-06-01T05:55:46.165Z,15.80
2019-06-01T05:58:17.252Z,15.90
2019-06-01T06:00:46.840Z,16.00
2019-06-01T06:03:20.764Z,16.20
2019-06-01T06:05:47.691Z,16.30
2019-06-01T06:08:17.991Z,16.40
2019-06-01T06:10:48.391Z,16.60
2019-06-01T06:13:17.770Z,16.70
2019-06-01T06:15:48.856Z,16.80
2019-06-01T06:18:18.169Z,16.90
2019-06-01T06:20:49.217Z,17.10
2019-06-01T06:23:18.589Z,17.20
2019-06-01T06:25:48.658Z,17.30
2019-06-01T06:28:18.806Z,17.50
2019-06-01T06:30:48.560Z,17.60
2019-06-01T06:33:19.344Z,17.70
2019-06-01T06:35:49.098Z,17.90
2019-06-01T06:38:19.773Z,18.00
2019-06-01T06:40:49.208Z,18.10
2019-06-01T06:43:29.694Z,18.30
2019-06-01T06:45:55.745Z,18.40
2019-06-01T06:48:25.202Z,18.60
2019-06-01T06:50:55.042Z,18.70
2019-06-01T06:53:32.768Z,18.80
2019-06-01T06:55:55.492Z,18.90
2019-06-01T06:58:26.578Z,19.00
2019-06-01T07:00:55.949Z,19.20
2019-06-01T07:03:25.340Z,19.30
2019-06-01T07:05:54.651Z,19.50
2019-06-01T07:08:24.126Z,19.60
2019-06-01T07:10:53.450Z,19.70
2019-06-01T07:13:23.404Z,19.80
2019-06-01T07:15:52.908Z,19.80
2019-06-01T07:18:23.538Z,19.80
2019-06-01T07:20:53.081Z,19.80
2019-06-01T07:23:23.726Z,19.90
2019-06-01T07:25:54.080Z,20.10
2019-06-01T07:28:24.156Z,20.40
2019-06-01T07:30:53.528Z,20.70
2019-06-01T07:33:24.191Z,20.90
2019-06-01T07:35:54.601Z,21.10
2019-06-01T07:38:24.689Z,21.10
2019-06-01T07:40:54.130Z,21.20
2019-06-01T07:43:24.888Z,21.30
2019-06-01T07:45:54.299Z,21.30
2019-06-01T07:48:24.889Z,21.40
2019-06-01T07:50:54.486Z,21.50
2019-06-01T07:53:24.434Z,21.50
2019-06-01T07:55:56.492Z,21.60
2019-06-01T07:58:26.770Z,21.70
2019-06-01T08:00:56.137Z,21.90
2019-06-01T08:03:30.681Z,22.00
2019-06-01T08:05:57.480Z,22.10
2019-06-01T08:08:27.346Z,22.20
2019-06-01T08:10:56.757Z,22.30
2019-06-01T08:13:30.389Z,22.50
2019-06-01T08:15:57.182Z,22.70
2019-06-01T08:18:28.263Z,22.90
2019-06-01T08:20:59.339Z,23.10
2019-06-01T08:23:28.656Z,23.20
2019-06-01T08:25:59.476Z,23.20
2019-06-01T08:28:29.077Z,23.40
2019-06-01T08:31:03.019Z,23.50
2019-06-01T08:33:35.009Z,23.50
2019-06-01T08:36:05.544Z,23.60
2019-06-01T08:38:38.814Z,23.60
2019-06-01T08:41:08.249Z,23.50
2019-06-01T08:43:40.992Z,23.50
2019-06-01T08:46:10.301Z,23.30
2019-06-01T08:48:39.633Z,23.30
2019-06-01T08:51:10.473Z,23.40
2019-06-01T08:53:39.828Z,23.60
2019-06-01T08:56:09.155Z,23.90
2019-06-01T08:58:38.550Z,24.20
2019-06-01T09:01:07.901Z,24.40
2019-06-01T09:03:45.534Z,24.60
2019-06-01T09:06:08.688Z,24.70
2019-06-01T09:08:38.038Z,24.70
2019-06-01T09:11:07.407Z,24.90
2019-06-01T09:13:37.609Z,25.00
2019-06-01T09:16:06.916Z,25.30
2019-06-01T09:18:36.251Z,25.40
2019-06-01T09:21:05.716Z,25.50
2019-06-01T09:23:37.054Z,25.80
2019-06-01T09:26:06.109Z,26.00
2019-06-01T09:28:36.205Z,26.30
2019-06-01T09:31:05.662Z,26.40
2019-06-01T09:33:35.572Z,26.70
2019-06-01T09:36:06.261Z,26.80
2019-06-01T09:38:36.046Z,27.00
2019-06-01T09:41:06.572Z,27.20
2019-06-01T09:43:37.093Z,27.50
2019-06-01T09:46:05.831Z,27.80
2019-06-01T09:48:35.644Z,28.00
2019-06-01T09:51:05.230Z,27.80
2019-06-01T09:53:35.962Z,28.10
2019-06-01T09:56:04.819Z,28.30
2019-06-01T09:58:34.581Z,28.30
2019-06-01T10:01:04.128Z,28.30
2019-06-01T10:03:34.466Z,28.50
2019-06-01T10:06:04.106Z,28.40
2019-06-01T10:08:34.308Z,28.60
2019-06-01T10:11:03.985Z,28.70
2019-06-01T10:13:36.290Z,28.80
2019-06-01T10:16:05.821Z,28.80
2019-06-01T10:18:35.864Z,29.20
2019-06-01T10:21:07.195Z,29.30
2019-06-01T10:23:36.701Z,29.50
2019-06-01T10:26:06.103Z,29.60
2019-06-01T10:28:37.653Z,29.70
2019-06-01T10:31:07.120Z,29.80
2019-06-01T10:33:37.390Z,29.80
2019-06-01T10:36:20.063Z,29.70
2019-06-01T10:38:39.235Z,29.20
2019-06-01T10:41:08.710Z,29.10
2019-06-01T10:43:38.023Z,28.90
2019-06-01T10:46:07.548Z,29.30
2019-06-01T10:48:37.996Z,29.60
2019-06-01T10:51:07.439Z,29.10
2019-06-01T10:53:38.076Z,29.30
2019-06-01T10:56:07.521Z,29.20
2019-06-01T10:58:54.443Z,29.20
2019-06-01T11:01:07.969Z,28.70
2019-06-01T11:03:38.674Z,28.90
2019-06-01T11:06:07.348Z,28.90
2019-06-01T11:08:37.151Z,29.10
2019-06-01T11:11:06.706Z,29.60
2019-06-01T11:13:37.085Z,29.70
2019-06-01T11:16:06.816Z,29.70
2019-06-01T11:18:37.493Z,29.40
2019-06-01T11:21:06.333Z,29.50
2019-06-01T11:23:35.626Z,29.40
2019-06-01T11:26:07.585Z,29.30
2019-06-01T11:28:38.218Z,29.30
2019-06-01T11:31:07.822Z,29.30
2019-06-01T11:33:38.251Z,29.00
2019-06-01T11:36:07.407Z,28.70
2019-06-01T11:38:36.759Z,29.20
2019-06-01T11:41:07.829Z,29.20
2019-06-01T11:43:38.512Z,29.60
2019-06-01T11:46:08.933Z,29.80
2019-06-01T11:48:39.247Z,30.10
2019-06-01T11:51:09.087Z,30.40
2019-06-01T11:53:39.981Z,30.60
2019-06-01T11:56:10.241Z,30.50
2019-06-01T11:58:39.546Z,30.20
2019-06-01T12:01:09.888Z,30.30
2019-06-01T12:03:40.008Z,30.60
2019-06-01T12:06:10.337Z,30.40
2019-06-01T12:08:40.244Z,30.40
2019-06-01T12:11:10.477Z,30.50
2019-06-01T12:13:40.578Z,30.50
2019-06-01T12:16:10.980Z,30.60
2019-06-01T12:18:41.015Z,30.70
2019-06-01T12:21:11.136Z,30.50
2019-06-01T12:23:41.496Z,30.50
2019-06-01T12:26:11.444Z,30.60
2019-06-01T12:28:43.750Z,30.40
2019-06-01T12:31:13.215Z,30.70
2019-06-01T12:33:42.546Z,30.70
2019-06-01T12:36:12.144Z,30.80
2019-06-01T12:38:51.595Z,30.80
2019-06-01T12:41:21.923Z,30.80
2019-06-01T12:44:09.941Z,31.00
2019-06-01T12:46:39.844Z,31.20
2019-06-01T12:49:10.609Z,31.10
2019-06-01T12:51:40.572Z,31.00
2019-06-01T12:54:11.183Z,31.00
2019-06-01T12:56:40.821Z,31.30
2019-06-01T12:59:10.267Z,31.40
2019-06-01T13:01:39.573Z,31.50
2019-06-01T13:04:08.976Z,31.60
2019-06-01T13:06:38.331Z,31.70
2019-06-01T13:09:08.567Z,31.90
2019-06-01T13:11:37.880Z,31.50
2019-06-01T13:14:07.324Z,30.40
2019-06-01T13:16:36.840Z,30.80
2019-06-01T13:19:06.327Z,30.90
2019-06-01T13:21:35.794Z,31.10
2019-06-01T13:24:05.291Z,31.40
2019-06-01T13:26:34.625Z,31.60
2019-06-01T13:29:05.616Z,31.50
2019-06-01T13:31:34.985Z,31.30
2019-06-01T13:34:04.440Z,31.20
2019-06-01T13:36:33.889Z,31.40
2019-06-01T13:39:06.985Z,31.40
2019-06-01T13:41:37.088Z,31.40
2019-06-01T13:44:06.448Z,31.40
2019-06-01T13:46:35.739Z,31.30
2019-06-01T13:49:05.053Z,31.30
2019-06-01T13:51:34.360Z,31.50
2019-06-01T13:54:03.831Z,31.60
2019-06-01T13:56:33.135Z,31.80
2019-06-01T13:59:02.544Z,31.70
2019-06-01T14:01:31.888Z,31.80
2019-06-01T14:04:01.298Z,31.70
2019-06-01T14:06:30.610Z,31.90
2019-06-01T14:08:59.943Z,31.70
2019-06-01T14:11:29.295Z,31.90
2019-06-01T14:13:58.625Z,31.60
2019-06-01T14:16:27.928Z,31.70
2019-06-01T14:18:57.243Z,31.50
2019-06-01T14:21:26.589Z,31.40
2019-06-01T14:23:56.168Z,31.40
2019-06-01T14:26:25.605Z,31.40
2019-06-01T14:28:54.925Z,31.70
2019-06-01T14:31:24.255Z,31.90
2019-06-01T14:33:54.840Z,32.10
2019-06-01T14:36:24.411Z,32.10
2019-06-01T14:38:56.304Z,31.60
2019-06-01T14:41:24.944Z,31.60
2019-06-01T14:43:54.256Z,31.70
2019-06-01T14:46:23.635Z,32.00
2019-06-01T14:48:53.475Z,32.10
2019-06-01T14:51:22.844Z,32.50
2019-06-01T14:53:52.194Z,32.50
2019-06-01T14:56:21.650Z,32.40
2019-06-01T14:58:51.909Z,32.30
2019-06-01T15:01:31.734Z,31.80
2019-06-01T15:03:53.962Z,32.10
2019-06-01T15:06:24.003Z,31.90
2019-06-01T15:09:10.711Z,31.70
2019-06-01T15:11:24.572Z,31.60
2019-06-01T15:13:54.476Z,31.60
2019-06-01T15:16:23.992Z,30.80
2019-06-01T15:18:54.289Z,30.30
2019-06-01T15:21:24.091Z,29.90
2019-06-01T15:23:53.881Z,29.40
2019-06-01T15:26:23.304Z,29.00
2019-06-01T15:28:53.161Z,29.00
2019-06-01T15:31:23.943Z,29.50
2019-06-01T15:33:53.456Z,29.30
2019-06-01T15:36:23.573Z,29.10
2019-06-01T15:38:53.676Z,28.90
2019-06-01T15:41:23.790Z,28.80
2019-06-01T15:43:54.942Z,28.70
2019-06-01T15:46:24.340Z,28.60
2019-06-01T15:48:55.996Z,28.40
2019-06-01T15:51:25.502Z,28.30
2019-06-01T15:53:54.902Z,28.20
2019-06-01T15:56:24.881Z,28.10
2019-06-01T15:58:56.923Z,27.80
2019-06-01T16:01:25.137Z,27.60
2019-06-01T16:03:55.134Z,27.60
2019-06-01T16:06:25.421Z,27.30
2019-06-01T16:08:57.137Z,27.20
2019-06-01T16:11:26.711Z,27.10
2019-06-01T16:13:57.685Z,27.00
2019-06-01T16:16:30.175Z,27.00
2019-06-01T16:19:04.095Z,26.90
2019-06-01T16:21:30.858Z,26.80
2019-06-01T16:24:00.456Z,26.80
2019-06-01T16:26:29.767Z,26.70
2019-06-01T16:29:00.410Z,26.60
2019-06-01T16:31:30.869Z,26.60
2019-06-01T16:34:00.688Z,26.50
2019-06-01T16:36:30.131Z,26.40
2019-06-01T16:39:03.054Z,26.30
2019-06-01T16:41:32.094Z,26.30
2019-06-01T16:44:01.782Z,26.30
2019-06-01T16:46:31.400Z,26.20
2019-06-01T16:49:01.565Z,26.30
2019-06-01T16:51:50.472Z,26.30
2019-06-01T16:54:19.815Z,26.40
2019-06-01T16:56:49.172Z,26.30
2019-06-01T16:59:18.875Z,26.30
2019-06-01T17:01:48.292Z,26.30
2019-06-01T17:04:17.710Z,26.30
2019-06-01T17:06:47.655Z,26.30
2019-06-01T17:09:17.207Z,26.30
2019-06-01T17:11:46.610Z,26.20
2019-06-01T17:14:16.093Z,26.20
2019-06-01T17:16:45.474Z,26.20
2019-06-01T17:19:15.048Z,26.10
2019-06-01T17:21:44.539Z,26.20
2019-06-01T17:24:13.890Z,26.10
2019-06-01T17:26:43.312Z,26.10
2019-06-01T17:29:12.682Z,26.00
2019-06-01T17:31:53.933Z,26.10
2019-06-01T17:34:13.030Z,26.00
2019-06-01T17:36:42.493Z,26.00
2019-06-01T17:39:12.308Z,25.90
2019-06-01T17:41:41.714Z,25.90
2019-06-01T17:44:11.048Z,25.90
2019-06-01T17:46:53.109Z,25.90
2019-06-01T17:49:12.380Z,25.80
2019-06-01T17:51:41.900Z,25.70
2019-06-01T17:54:11.867Z,25.60
2019-06-01T17:56:41.389Z,25.50
2019-06-01T17:59:11.584Z,25.50
2019-06-01T18:01:42.480Z,25.40
2019-06-01T18:04:12.238Z,25.40
2019-06-01T18:06:41.632Z,25.20
2019-06-01T18:09:12.141Z,25.20
2019-06-01T18:11:41.705Z,25.00
2019-06-01T18:14:12.279Z,24.90
2019-06-01T18:16:41.791Z,24.90
2019-06-01T18:19:12.265Z,24.80
2019-06-01T18:21:42.278Z,24.70
2019-06-01T18:24:12.693Z,24.60
2019-06-01T18:26:42.219Z,24.50
2019-06-01T18:29:12.687Z,24.40
2019-06-01T18:31:42.082Z,24.30
2019-06-01T18:34:11.801Z,24.20
2019-06-01T18:36:41.309Z,24.10
2019-06-01T18:39:11.774Z,24.00
2019-06-01T18:41:41.231Z,23.90
2019-06-01T18:44:11.849Z,23.80
2019-06-01T18:46:40.569Z,23.70
2019-06-01T18:49:10.020Z,23.60
2019-06-01T18:51:39.476Z,23.50
2019-06-01T18:54:08.853Z,23.50
2019-06-01T18:56:38.292Z,23.40
2019-06-01T18:59:08.512Z,23.30
2019-06-01T19:01:39.072Z,23.20
2019-06-01T19:04:09.554Z,23.10
2019-06-01T19:06:39.122Z,23.00
2019-06-01T19:09:09.403Z,22.90
2019-06-01T19:11:38.911Z,22.80
2019-06-01T19:14:08.308Z,22.60
2019-06-01T19:16:37.880Z,22.50
2019-06-01T19:19:08.303Z,22.50
2019-06-01T19:21:38.283Z,22.40
2019-06-01T19:24:08.510Z,22.30
2019-06-01T19:26:38.558Z,22.20
2019-06-01T19:29:08.854Z,22.10
2019-06-01T19:31:39.175Z,22.00
2019-06-01T19:34:09.065Z,21.90
2019-06-01T19:36:39.247Z,21.70
2019-06-01T19:39:09.379Z,21.60
2019-06-01T19:41:44.686Z,21.50
2019-06-01T19:44:11.460Z,21.30
2019-06-01T19:46:40.909Z,21.20
2019-06-01T19:49:10.814Z,21.10
2019-06-01T19:51:49.809Z,21.10
2019-06-01T19:54:19.564Z,21.00
2019-06-01T19:56:48.888Z,20.90
2019-06-01T19:59:20.071Z,20.80
2019-06-01T20:01:49.390Z,20.70
2019-06-01T20:04:18.750Z,20.60
2019-06-01T20:06:48.135Z,20.60
2019-06-01T20:09:17.433Z,20.50
2019-06-01T20:12:00.945Z,20.40
2019-06-01T20:14:19.164Z,20.30
2019-06-01T20:16:48.565Z,20.20
2019-06-01T20:19:18.006Z,20.10
2019-06-01T20:21:47.327Z,20.00
2019-06-01T20:24:17.401Z,20.00
2019-06-01T20:26:49.510Z,19.90
2019-06-01T20:29:20.125Z,19.80
2019-06-01T20:31:49.450Z,19.80
2019-06-01T20:34:22.570Z,19.80
2019-06-01T20:36:52.008Z,19.70
2019-06-01T20:39:22.390Z,19.60
2019-06-01T20:41:51.920Z,19.60
2019-06-01T20:44:21.263Z,19.50
2019-06-01T20:46:50.611Z,19.50
2019-06-01T20:49:20.685Z,19.50
2019-06-01T20:51:50.114Z,19.40
2019-06-01T20:54:20.967Z,19.30
2019-06-01T20:56:50.488Z,19.30
2019-06-01T20:59:21.495Z,19.20
2019-06-01T21:01:50.918Z,19.10
2019-06-01T21:04:20.413Z,19.00
2019-06-01T21:06:49.796Z,19.00
2019-06-01T21:09:21.939Z,18.90
2019-06-01T21:11:51.389Z,18.80
2019-06-01T21:14:20.846Z,18.80
2019-06-01T21:16:50.148Z,18.70
2019-06-01T21:19:20.442Z,18.70
2019-06-01T21:21:49.903Z,18.60
2019-06-01T21:24:19.245Z,18.60
2019-06-01T21:26:48.571Z,18.50
2019-06-01T21:29:18.751Z,18.50
2019-06-01T21:31:48.335Z,18.40
2019-06-01T21:34:17.674Z,18.40
2019-06-01T21:36:47.024Z,18.40
2019-06-01T21:39:17.507Z,18.30
2019-06-01T21:41:47.108Z,18.20
2019-06-01T21:44:17.415Z,18.20
2019-06-01T21:46:48.621Z,18.20
2019-06-01T21:49:17.960Z,18.10
2019-06-01T21:51:47.280Z,18.10
2019-06-01T21:54:17.828Z,18.10
2019-06-01T21:56:47.422Z,18.00
2019-06-01T21:59:16.781Z,18.00
2019-06-01T22:01:46.286Z,18.00
2019-06-01T22:04:16.713Z,17.90
2019-06-01T22:06:46.540Z,17.90
2019-06-01T22:09:17.164Z,17.80
2019-06-01T22:11:46.744Z,17.80
2019-06-01T22:14:17.258Z,17.70
2019-06-01T22:16:46.810Z,17.70
2019-06-01T22:19:17.448Z,17.70
2019-06-01T22:21:46.125Z,17.60
2019-06-01T22:24:15.378Z,17.60
2019-06-01T22:26:44.685Z,17.60
2019-06-01T22:29:14.038Z,17.50
2019-06-01T22:31:43.343Z,17.50
2019-06-01T22:34:12.757Z,17.50
2019-06-01T22:36:42.156Z,17.40
2019-06-01T22:39:11.538Z,17.40
2019-06-01T22:41:40.884Z,17.40
2019-06-01T22:44:10.246Z,17.40
2019-06-01T22:46:39.578Z,17.30
2019-06-01T22:49:08.913Z,17.20
2019-06-01T22:51:38.257Z,17.30
2019-06-01T22:54:07.564Z,17.20
2019-06-01T22:56:36.872Z,17.20
2019-06-01T22:59:06.200Z,17.20
2019-06-01T23:01:35.534Z,17.10
2019-06-01T23:04:04.934Z,17.10
2019-06-01T23:06:34.254Z,17.00
2019-06-01T23:09:04.451Z,17.00
2019-06-01T23:11:33.891Z,17.00
2019-06-01T23:14:03.637Z,16.90
2019-06-01T23:16:32.980Z,16.90
2019-06-01T23:19:02.294Z,16.90
2019-06-01T23:21:32.023Z,16.80
2019-06-01T23:24:01.408Z,16.80
2019-06-01T23:26:30.737Z,16.80
2019-06-01T23:29:00.106Z,16.70
2019-06-01T23:31:30.464Z,16.70
2019-06-01T23:33:59.816Z,16.60
2019-06-01T23:36:29.147Z,16.60
2019-06-01T23:38:58.455Z,16.50
2019-06-01T23:41:28.773Z,16.50
2019-06-01T23:44:11.278Z,16.50
2019-06-01T23:46:29.156Z,16.40
2019-06-01T23:48:58.544Z,16.50
2019-06-01T23:51:27.900Z,16.40
2019-06-01T23:53:57.237Z,16.40
2019-06-01T23:56:27.654Z,16.30
2019-06-01T23:58:57.052Z,16.30
